Dixie Vandal — WDC2682 — position and weather

sailwx.info

Track history (hours):
 
Tides and Currents Weather Stations Pressure Air Temp Water Temp Dewpoint Dewpoint Depression Visibility Wind Speed Wind Dir Waves Ship Positions

Dixie Vandal

Owner: Kirby Inland Marine LP, Houston, TX. More information available from US FCC via Universal Licensing System and Coast Guard Vessel Documentation Center.

Last reported at 2017-Dec-11 13:21 UTC. Time now 2017-Dec-11 21:18 UTC.
Position N 29°46' W 095°07'.

Length 114 m; draft 2.9 m.

Type: . MMSI: 366996360.

Date/timePositionNaut miles runAvg speedWind from/ knotsBaromVisibWave heightAir tempDewpointWater temp
2017-Dec-11 13:21N 29°46' W 095°07'0 0.0
2017-Dec-11 03:00N 29°46' W 095°07'1 1.0
2017-Dec-11 02:30N 29°46' W 095°06'1 1.2
2017-Dec-11 01:59N 29°46' W 095°06'0 0.0
2017-Dec-11 00:12N 29°45' W 095°06'1 4.2
2017-Dec-10 23:54N 29°46' W 095°07'1 2.2
2017-Dec-10 23:21N 29°45' W 095°06'1 1.7
2017-Dec-10 22:43N 29°46' W 095°04'3 5.3
2017-Dec-10 22:13N 29°44' W 095°02'2 5.4
2017-Dec-10 21:56N 29°43' W 095°01'3 6.2
2017-Dec-10 21:30N 29°41' W 094°59'3 5.7
2017-Dec-10 21:00N 29°38' W 094°58'3 6.9
2017-Dec-10 20:30N 29°35' W 094°56'4 7.2
2017-Dec-10 20:00N 29°32' W 094°54'0 0.0
2017-Dec-09 00:43N 29°32' W 094°54'1 5.8
2017-Dec-09 00:30N 29°33' W 094°55'3 6.1
2017-Dec-09 00:01N 29°36' W 094°57'3 6.2
2017-Dec-08 23:31N 29°38' W 094°58'3 6.4
2017-Dec-08 23:01N 29°41' W 094°59'2 4.9
2017-Dec-08 22:30N 29°43' W 095°01'2 3.3
2017-Dec-08 21:59N 29°44' W 095°03'0 0.0
2017-Dec-08 10:01N 29°44' W 095°03'0 0.0
2017-Dec-08 09:36N 29°44' W 095°03'0 0.3
2017-Dec-08 09:31N 29°44' W 095°03'1 1.3
2017-Dec-08 09:00N 29°44' W 095°04'2 0.9
2017-Dec-08 06:34N 29°46' W 095°05'0 3.7
2017-Dec-08 06:27N 29°46' W 095°06'0 0.4
2017-Dec-08 06:00N 29°46' W 095°05'1 1.6
2017-Dec-08 05:19N 29°45' W 095°06'0 0.0
2017-Dec-08 04:55N 29°45' W 095°06'0 0.0
2017-Dec-08 04:01N 29°45' W 095°06'0 0.0
2017-Dec-08 03:58N 29°45' W 095°06'0 0.0
2017-Dec-08 02:01N 29°45' W 095°06'0 0.0
2017-Dec-08 01:49N 29°45' W 095°06'0 0.0
2017-Dec-07 14:48N 29°45' W 095°06'1 2.7
2017-Dec-07 14:30N 29°45' W 095°06'0 0.1
2017-Dec-07 13:20N 29°45' W 095°06'0 1.0
2017-Dec-07 12:56N 29°46' W 095°05'0 0.4
2017-Dec-07 12:30N 29°46' W 095°06'0 0.3
2017-Dec-07 11:58N 29°46' W 095°05'  
2017-Dec-04 10:30N 29°44' W 095°08'3 6.4
2017-Dec-04 10:00N 29°44' W 095°12'3 5.7
2017-Dec-04 09:29N 29°44' W 095°15'2 3.2
2017-Dec-04 08:59N 29°44' W 095°17'0 0.1
2017-Dec-04 07:27N 29°44' W 095°17'0 0.0
2017-Dec-04 05:30N 29°44' W 095°17'0 0.0
2017-Dec-04 04:12N 29°44' W 095°17'0 0.0
2017-Dec-04 04:00N 29°44' W 095°17'0 0.0
2017-Dec-04 03:30N 29°44' W 095°17'0 0.0
2017-Dec-04 02:51N 29°44' W 095°17'0 0.0
2017-Dec-04 02:30N 29°44' W 095°17'0 0.0
2017-Dec-04 02:00N 29°44' W 095°17'0 0.0
2017-Dec-04 01:00N 29°44' W 095°17'0 0.0
2017-Dec-04 00:30N 29°44' W 095°17'1 2.4
2017-Dec-04 00:00N 29°44' W 095°16'1 2.1
2017-Dec-03 23:30N 29°43' W 095°14'3 5.8
2017-Dec-03 23:00N 29°45' W 095°12'5 0.3
2017-Dec-03 06:08N 29°45' W 095°06'0 0.0
2017-Dec-03 05:44N 29°45' W 095°06'0 0.0
2017-Dec-03 05:20N 29°45' W 095°06'0 0.0
2017-Dec-03 04:53N 29°45' W 095°06'0 0.0
2017-Dec-03 04:20N 29°45' W 095°06'0 0.0
2017-Dec-03 03:35N 29°45' W 095°06'0 0.0
2017-Dec-03 00:04N 29°45' W 095°06'1 2.4
2017-Dec-02 23:51N 29°45' W 095°06'2 4.9
2017-Dec-02 23:23N 29°44' W 095°03'3 6.3
2017-Dec-02 22:58N 29°42' W 095°01'3 6.2
2017-Dec-02 22:30N 29°41' W 094°59'3 6.9
2017-Dec-02 22:00N 29°37' W 094°57'4 7.0
2017-Dec-02 21:30N 29°34' W 094°55'4 7.0
2017-Dec-02 21:00N 29°31' W 094°53'  
Track history (hours):
 
Tides and Currents Weather Stations Pressure Air Temp Water Temp Dewpoint Dewpoint Depression Visibility Wind Speed Wind Dir Waves Ship Positions

Dixie Vandal

Owner: Kirby Inland Marine LP, Houston, TX. More information available from US FCC via Universal Licensing System and Coast Guard Vessel Documentation Center.

Last reported at 2017-Dec-11 13:21 UTC. Time now 2017-Dec-11 21:18 UTC.
Position N 29°46' W 095°07'.

Length 114 m; draft 2.9 m.

Type: . MMSI: 366996360.

Date/timePositionNaut miles runAvg speedWind from/ knotsBaromVisibWave heightAir tempDewpointWater temp
2017-Dec-11 13:21N 29°46' W 095°07'0 0.0
2017-Dec-11 03:00N 29°46' W 095°07'1 1.0
2017-Dec-11 02:30N 29°46' W 095°06'1 1.2
2017-Dec-11 01:59N 29°46' W 095°06'0 0.0
2017-Dec-11 00:12N 29°45' W 095°06'1 4.2
2017-Dec-10 23:54N 29°46' W 095°07'1 2.2
2017-Dec-10 23:21N 29°45' W 095°06'1 1.7
2017-Dec-10 22:43N 29°46' W 095°04'3 5.3
2017-Dec-10 22:13N 29°44' W 095°02'2 5.4
2017-Dec-10 21:56N 29°43' W 095°01'3 6.2
2017-Dec-10 21:30N 29°41' W 094°59'3 5.7
2017-Dec-10 21:00N 29°38' W 094°58'3 6.9
2017-Dec-10 20:30N 29°35' W 094°56'4 7.2
2017-Dec-10 20:00N 29°32' W 094°54'0 0.0
2017-Dec-09 00:43N 29°32' W 094°54'1 5.8
2017-Dec-09 00:30N 29°33' W 094°55'3 6.1
2017-Dec-09 00:01N 29°36' W 094°57'3 6.2
2017-Dec-08 23:31N 29°38' W 094°58'3 6.4
2017-Dec-08 23:01N 29°41' W 094°59'2 4.9
2017-Dec-08 22:30N 29°43' W 095°01'2 3.3
2017-Dec-08 21:59N 29°44' W 095°03'0 0.0
2017-Dec-08 10:01N 29°44' W 095°03'0 0.0
2017-Dec-08 09:36N 29°44' W 095°03'0 0.3
2017-Dec-08 09:31N 29°44' W 095°03'1 1.3
2017-Dec-08 09:00N 29°44' W 095°04'2 0.9
2017-Dec-08 06:34N 29°46' W 095°05'0 3.7
2017-Dec-08 06:27N 29°46' W 095°06'0 0.4
2017-Dec-08 06:00N 29°46' W 095°05'1 1.6
2017-Dec-08 05:19N 29°45' W 095°06'0 0.0
2017-Dec-08 04:55N 29°45' W 095°06'0 0.0
2017-Dec-08 04:01N 29°45' W 095°06'0 0.0
2017-Dec-08 03:58N 29°45' W 095°06'0 0.0
2017-Dec-08 02:01N 29°45' W 095°06'0 0.0
2017-Dec-08 01:49N 29°45' W 095°06'0 0.0
2017-Dec-07 14:48N 29°45' W 095°06'1 2.7
2017-Dec-07 14:30N 29°45' W 095°06'0 0.1
2017-Dec-07 13:20N 29°45' W 095°06'0 1.0
2017-Dec-07 12:56N 29°46' W 095°05'0 0.4
2017-Dec-07 12:30N 29°46' W 095°06'0 0.3
2017-Dec-07 11:58N 29°46' W 095°05'  
2017-Dec-04 10:30N 29°44' W 095°08'3 6.4
2017-Dec-04 10:00N 29°44' W 095°12'3 5.7
2017-Dec-04 09:29N 29°44' W 095°15'2 3.2
2017-Dec-04 08:59N 29°44' W 095°17'0 0.1
2017-Dec-04 07:27N 29°44' W 095°17'0 0.0
2017-Dec-04 05:30N 29°44' W 095°17'0 0.0
2017-Dec-04 04:12N 29°44' W 095°17'0 0.0
2017-Dec-04 04:00N 29°44' W 095°17'0 0.0
2017-Dec-04 03:30N 29°44' W 095°17'0 0.0
2017-Dec-04 02:51N 29°44' W 095°17'0 0.0
2017-Dec-04 02:30N 29°44' W 095°17'0 0.0
2017-Dec-04 02:00N 29°44' W 095°17'0 0.0
2017-Dec-04 01:00N 29°44' W 095°17'0 0.0
2017-Dec-04 00:30N 29°44' W 095°17'1 2.4
2017-Dec-04 00:00N 29°44' W 095°16'1 2.1
2017-Dec-03 23:30N 29°43' W 095°14'3 5.8
2017-Dec-03 23:00N 29°45' W 095°12'5 0.3
2017-Dec-03 06:08N 29°45' W 095°06'0 0.0
2017-Dec-03 05:44N 29°45' W 095°06'0 0.0
2017-Dec-03 05:20N 29°45' W 095°06'0 0.0
2017-Dec-03 04:53N 29°45' W 095°06'0 0.0
2017-Dec-03 04:20N 29°45' W 095°06'0 0.0
2017-Dec-03 03:35N 29°45' W 095°06'0 0.0
2017-Dec-03 00:04N 29°45' W 095°06'1 2.4
2017-Dec-02 23:51N 29°45' W 095°06'2 4.9
2017-Dec-02 23:23N 29°44' W 095°03'3 6.3
2017-Dec-02 22:58N 29°42' W 095°01'3 6.2
2017-Dec-02 22:30N 29°41' W 094°59'3 6.9
2017-Dec-02 22:00N 29°37' W 094°57'4 7.0
2017-Dec-02 21:30N 29°34' W 094°55'4 7.0
2017-Dec-02 21:00N 29°31' W 094°53'  

Dump ship's entire track history